createdAt,value
2018-01-25T12:05:13.839Z,4.20
2018-01-25T12:06:13.831Z,4.80
2018-01-25T12:07:13.822Z,4.40
2018-01-25T12:08:13.819Z,3.40
2018-01-25T12:09:13.816Z,4.60
2018-01-25T12:10:13.818Z,4.50
2018-01-25T12:11:13.811Z,4.50
2018-01-25T12:12:13.799Z,4.90
2018-01-25T12:13:13.801Z,5.00
2018-01-25T12:14:13.796Z,4.80
2018-01-25T12:15:13.793Z,4.60
2018-01-25T12:16:13.790Z,4.60
2018-01-25T12:17:13.805Z,5.10
2018-01-25T12:18:13.779Z,4.60
2018-01-25T12:19:13.781Z,4.70
2018-01-25T12:20:13.777Z,5.30
2018-01-25T12:21:13.775Z,4.60
2018-01-25T12:22:13.765Z,5.40
2018-01-25T12:23:13.762Z,4.70
2018-01-25T12:24:13.767Z,4.70
2018-01-25T12:25:13.758Z,5.10
2018-01-25T12:26:13.757Z,4.70
2018-01-25T12:27:13.753Z,5.10
2018-01-25T12:28:13.748Z,4.40
2018-01-25T12:29:13.741Z,4.80
2018-01-25T12:30:13.741Z,4.50
2018-01-25T12:31:13.740Z,4.80
2018-01-25T12:32:13.733Z,4.60
2018-01-25T12:33:13.734Z,4.80
2018-01-25T12:34:13.724Z,4.60
2018-01-25T12:35:13.724Z,5.40
2018-01-25T12:36:13.724Z,5.00
2018-01-25T12:37:13.717Z,5.00
2018-01-25T12:38:13.706Z,4.90
2018-01-25T12:39:13.702Z,4.80
2018-01-25T12:40:13.733Z,3.90
2018-01-25T12:41:13.798Z,4.50
2018-01-25T12:42:13.697Z,4.20
2018-01-25T12:43:13.698Z,4.80
2018-01-25T12:44:13.690Z,4.30
2018-01-25T12:45:13.680Z,4.40
2018-01-25T12:46:13.681Z,4.70
2018-01-25T12:47:13.676Z,4.10
2018-01-25T12:48:13.676Z,4.80
2018-01-25T12:49:13.685Z,4.90
2018-01-25T12:50:13.663Z,5.30
2018-01-25T12:51:13.665Z,5.20
2018-01-25T12:52:13.663Z,4.80
2018-01-25T12:53:13.656Z,4.90
2018-01-25T12:54:13.650Z,4.70
2018-01-25T12:55:13.653Z,4.90
2018-01-25T12:56:13.640Z,4.90
2018-01-25T12:57:13.644Z,4.80
2018-01-25T12:58:13.694Z,4.50
2018-01-25T12:59:13.635Z,5.40
2018-01-25T13:00:13.629Z,4.90
2018-01-25T13:01:13.624Z,4.60
2018-01-25T13:02:13.627Z,5.00
2018-01-25T13:03:13.758Z,4.90
2018-01-25T13:04:13.617Z,3.90
2018-01-25T13:05:13.613Z,4.30
2018-01-25T13:06:13.606Z,4.80
2018-01-25T13:07:13.602Z,5.20
2018-01-25T13:08:13.607Z,6.00
2018-01-25T13:09:13.600Z,5.20
2018-01-25T13:10:13.594Z,5.40
2018-01-25T13:11:13.588Z,5.30
2018-01-25T13:12:13.583Z,3.80
2018-01-25T13:13:13.578Z,4.90
2018-01-25T13:14:13.578Z,4.40
2018-01-25T13:15:13.574Z,4.50
2018-01-25T13:16:13.569Z,4.90
2018-01-25T13:17:13.568Z,6.60
2018-01-25T13:18:13.573Z,5.50
2018-01-25T13:19:13.560Z,4.70
2018-01-25T13:20:13.561Z,4.70
2018-01-25T13:21:13.558Z,5.30
2018-01-25T13:22:13.548Z,4.60
2018-01-25T13:23:13.538Z,4.40
2018-01-25T13:24:13.544Z,4.60
2018-01-25T13:25:13.535Z,4.30
2018-01-25T13:26:13.532Z,4.40
2018-01-25T13:27:13.522Z,5.10
2018-01-25T13:28:13.520Z,3.00
2018-01-25T13:29:13.517Z,4.10
2018-01-25T13:30:13.556Z,4.10
2018-01-25T13:31:13.517Z,4.40
2018-01-25T13:32:13.506Z,4.60
2018-01-25T13:33:13.511Z,4.80
2018-01-25T13:34:13.519Z,4.10
2018-01-25T13:35:13.500Z,4.60
2018-01-25T13:36:13.495Z,4.10
2018-01-25T13:37:13.492Z,4.40
2018-01-25T13:38:13.480Z,4.80
2018-01-25T13:39:13.481Z,4.60
2018-01-25T13:40:13.482Z,4.50
2018-01-25T13:41:13.474Z,4.10
2018-01-25T13:42:13.466Z,4.10
2018-01-25T13:43:13.463Z,4.40
2018-01-25T13:44:13.470Z,4.10
2018-01-25T13:45:13.462Z,4.20
2018-01-25T13:46:13.467Z,4.90
2018-01-25T13:47:13.464Z,4.30
2018-01-25T13:48:13.448Z,4.50
2018-01-25T13:49:13.442Z,4.30
2018-01-25T13:50:13.445Z,4.70
2018-01-25T13:51:13.442Z,4.70
2018-01-25T13:52:13.450Z,4.50
2018-01-25T13:53:13.431Z,4.40
2018-01-25T13:54:13.419Z,4.20
2018-01-25T13:55:13.414Z,4.10
2018-01-25T13:56:13.415Z,4.80
2018-01-25T13:57:13.412Z,4.60
2018-01-25T13:58:13.407Z,4.50
2018-01-25T13:59:13.400Z,4.50
2018-01-25T14:00:13.402Z,4.60
2018-01-25T14:01:13.448Z,4.40
2018-01-25T14:02:13.399Z,4.40
2018-01-25T14:03:13.395Z,4.80
2018-01-25T14:04:13.386Z,4.30
2018-01-25T14:05:13.384Z,4.20
2018-01-25T14:06:13.379Z,4.80
2018-01-25T14:07:13.382Z,4.40
2018-01-25T14:08:13.376Z,4.20
2018-01-25T14:09:13.375Z,4.90
2018-01-25T14:10:13.366Z,4.50
2018-01-25T14:11:13.359Z,4.80
2018-01-25T14:12:13.356Z,5.20
2018-01-25T14:13:13.353Z,4.80
2018-01-25T14:14:13.356Z,5.00
2018-01-25T14:15:13.349Z,4.80
2018-01-25T14:16:13.344Z,4.60
2018-01-25T14:17:13.340Z,4.40
2018-01-25T14:18:13.332Z,4.80
2018-01-25T14:19:13.330Z,5.20
2018-01-25T14:20:13.378Z,4.60
2018-01-25T14:21:13.326Z,4.90
2018-01-25T14:22:13.418Z,4.50
2018-01-25T14:23:13.321Z,4.60
2018-01-25T14:24:13.311Z,4.40
2018-01-25T14:25:13.312Z,4.70
2018-01-25T14:26:13.308Z,4.70
2018-01-25T14:27:13.305Z,5.30
2018-01-25T14:28:13.298Z,4.80
2018-01-25T14:29:13.313Z,4.50
2018-01-25T14:30:13.294Z,4.90
2018-01-25T14:31:13.290Z,4.20
2018-01-25T14:32:13.291Z,4.30
2018-01-25T14:33:13.286Z,5.00
2018-01-25T14:34:13.277Z,5.00
2018-01-25T14:35:13.275Z,4.50
2018-01-25T14:36:13.282Z,4.30
2018-01-25T14:37:13.268Z,4.40
2018-01-25T14:38:13.264Z,4.50
2018-01-25T14:39:13.262Z,4.20
2018-01-25T14:40:13.257Z,3.90
2018-01-25T14:41:13.254Z,4.30
2018-01-25T14:42:13.256Z,5.30
2018-01-25T14:43:13.248Z,4.40
2018-01-25T14:44:13.241Z,3.90
2018-01-25T14:45:13.291Z,4.10
2018-01-25T14:46:13.238Z,4.50
2018-01-25T14:47:13.233Z,4.50
2018-01-25T14:48:13.228Z,4.70
2018-01-25T14:49:13.223Z,4.80
2018-01-25T14:50:13.222Z,4.60
2018-01-25T14:51:13.212Z,4.20
2018-01-25T14:52:13.214Z,4.30
2018-01-25T14:53:13.210Z,4.20
2018-01-25T14:54:13.204Z,4.30
2018-01-25T14:55:13.200Z,4.50
2018-01-25T14:56:13.199Z,4.60
2018-01-25T14:57:13.189Z,4.60
2018-01-25T14:58:13.214Z,4.60
2018-01-25T14:59:13.185Z,4.40
2018-01-25T15:00:13.183Z,4.30
2018-01-25T15:01:13.176Z,4.70
2018-01-25T15:02:13.180Z,4.20
2018-01-25T15:03:13.170Z,4.50
2018-01-25T15:04:13.169Z,4.70
2018-01-25T15:05:13.168Z,4.80
2018-01-25T15:06:13.155Z,4.60
2018-01-25T15:07:13.153Z,4.50
2018-01-25T15:08:13.167Z,5.00
2018-01-25T15:09:13.150Z,4.50
2018-01-25T15:10:13.220Z,4.40
2018-01-25T15:11:13.139Z,4.70
2018-01-25T15:12:13.134Z,4.80
2018-01-25T15:13:13.133Z,4.80
2018-01-25T15:14:13.137Z,5.00
2018-01-25T15:15:13.130Z,4.50
2018-01-25T15:16:13.149Z,4.80
2018-01-25T15:17:13.112Z,5.30
2018-01-25T15:18:13.113Z,5.50
2018-01-25T15:19:13.113Z,4.70
2018-01-25T15:20:13.259Z,4.90
2018-01-25T15:21:13.103Z,4.80
2018-01-25T15:22:13.098Z,4.60
2018-01-25T15:23:13.101Z,4.60
2018-01-25T15:24:13.095Z,4.80
2018-01-25T15:25:13.089Z,4.70
2018-01-25T15:26:13.078Z,4.50
2018-01-25T15:27:13.078Z,5.00
2018-01-25T15:28:13.072Z,4.80
2018-01-25T15:29:13.067Z,4.50
2018-01-25T15:30:13.071Z,5.70
2018-01-25T15:31:13.069Z,5.20
2018-01-25T15:32:13.356Z,4.80
2018-01-25T15:33:13.055Z,4.90
2018-01-25T15:34:13.051Z,5.00
2018-01-25T15:35:13.050Z,4.90
2018-01-25T15:36:13.041Z,5.00
2018-01-25T15:37:13.040Z,5.20
2018-01-25T15:38:13.028Z,5.10
2018-01-25T15:39:13.029Z,5.20
2018-01-25T15:40:13.031Z,4.80
2018-01-25T15:41:13.030Z,5.30
2018-01-25T15:42:13.017Z,5.10
2018-01-25T15:43:13.316Z,4.90
2018-01-25T15:44:13.012Z,4.90
2018-01-25T15:45:13.001Z,4.90
2018-01-25T15:46:13.008Z,4.90
2018-01-25T15:47:13.003Z,5.10
2018-01-25T15:48:12.991Z,5.50
2018-01-25T15:49:12.992Z,5.10
2018-01-25T15:50:12.992Z,4.70
2018-01-25T15:51:12.986Z,5.10
2018-01-25T15:52:12.983Z,5.50
2018-01-25T15:53:12.980Z,5.00
2018-01-25T15:54:12.975Z,5.00
2018-01-25T15:55:13.019Z,5.30
2018-01-25T15:56:12.966Z,5.40
2018-01-25T15:57:12.962Z,5.50
2018-01-25T15:58:12.955Z,5.40
2018-01-25T15:59:12.952Z,5.10
2018-01-25T16:00:12.950Z,5.20
2018-01-25T16:01:12.947Z,5.40
2018-01-25T16:02:12.953Z,5.40
2018-01-25T16:03:12.944Z,5.50
2018-01-25T16:04:12.936Z,5.60
2018-01-25T16:05:12.931Z,5.30
2018-01-25T16:06:12.933Z,5.60
2018-01-25T16:07:12.929Z,5.50
2018-01-25T16:08:12.927Z,5.70
2018-01-25T16:09:12.925Z,6.40
2018-01-25T16:10:12.911Z,6.10
2018-01-25T16:11:12.925Z,5.90
2018-01-25T16:12:12.911Z,6.70
2018-01-25T16:13:12.908Z,6.00
2018-01-25T16:14:12.900Z,5.30
2018-01-25T16:15:12.896Z,5.70
2018-01-25T16:16:12.890Z,5.60
2018-01-25T16:17:12.887Z,6.30
2018-01-25T16:18:13.192Z,5.40
2018-01-25T16:19:12.890Z,6.00
2018-01-25T16:20:12.879Z,6.30
2018-01-25T16:21:12.877Z,5.70
2018-01-25T16:22:12.869Z,5.90
2018-01-25T16:23:12.871Z,6.20
2018-01-25T16:24:12.865Z,5.90
2018-01-25T16:25:12.859Z,5.80
2018-01-25T16:26:12.860Z,5.20
2018-01-25T16:27:12.867Z,5.30
2018-01-25T16:28:12.847Z,5.50
2018-01-25T16:29:12.858Z,5.70
2018-01-25T16:30:12.842Z,5.40
2018-01-25T16:31:12.839Z,5.70
2018-01-25T16:32:12.838Z,5.80
2018-01-25T16:33:12.834Z,5.10
2018-01-25T16:34:12.827Z,5.40
2018-01-25T16:35:13.123Z,5.70
2018-01-25T16:36:12.824Z,6.00
2018-01-25T16:37:12.822Z,5.00
2018-01-25T16:38:12.810Z,5.90
2018-01-25T16:39:12.810Z,5.60
2018-01-25T16:40:12.799Z,5.90
2018-01-25T16:41:13.096Z,6.00
2018-01-25T16:42:12.802Z,5.30
2018-01-25T16:43:12.791Z,5.80
2018-01-25T16:44:12.785Z,5.70
2018-01-25T16:45:12.781Z,5.50
2018-01-25T16:46:12.801Z,6.00
2018-01-25T16:47:12.776Z,5.80
2018-01-25T16:48:12.813Z,6.10
2018-01-25T16:49:12.767Z,5.70
2018-01-25T16:50:12.759Z,5.70
2018-01-25T16:51:12.753Z,6.20
2018-01-25T16:52:12.759Z,6.00
2018-01-25T16:53:12.750Z,6.20
2018-01-25T16:54:12.745Z,6.20
2018-01-25T16:55:12.743Z,5.70
2018-01-25T16:56:12.736Z,5.50
2018-01-25T16:57:12.732Z,5.80
2018-01-25T16:58:12.733Z,5.60
2018-01-25T16:59:12.733Z,6.00
2018-01-25T17:00:12.729Z,6.20
2018-01-25T17:01:12.729Z,6.30
2018-01-25T17:02:12.755Z,5.50
2018-01-25T17:03:12.715Z,6.20
2018-01-25T17:04:12.707Z,6.30
2018-01-25T17:05:12.703Z,5.90
2018-01-25T17:06:12.698Z,5.60
2018-01-25T17:07:12.693Z,6.00
2018-01-25T17:08:12.695Z,5.80
2018-01-25T17:09:12.687Z,6.30
2018-01-25T17:10:12.681Z,5.70
2018-01-25T17:11:12.684Z,6.00
2018-01-25T17:12:12.678Z,6.00
2018-01-25T17:13:12.685Z,6.10
2018-01-25T17:14:12.664Z,6.30
2018-01-25T17:15:12.659Z,6.00
2018-01-25T17:16:12.654Z,6.10
2018-01-25T17:17:12.650Z,5.50
2018-01-25T17:18:12.656Z,5.90
2018-01-25T17:19:12.646Z,6.00
2018-01-25T17:20:12.640Z,6.30
2018-01-25T17:21:12.642Z,5.80
2018-01-25T17:22:12.626Z,6.50
2018-01-25T17:23:12.622Z,5.80
2018-01-25T17:24:12.627Z,5.80
2018-01-25T17:25:12.619Z,6.10
2018-01-25T17:26:12.612Z,6.30
2018-01-25T17:27:12.611Z,6.20
2018-01-25T17:28:12.603Z,6.40
2018-01-25T17:29:12.597Z,5.20
2018-01-25T17:30:12.596Z,6.00
2018-01-25T17:31:12.592Z,5.30
2018-01-25T17:32:12.587Z,6.00
2018-01-25T17:33:12.583Z,6.40
2018-01-25T17:34:12.586Z,5.80
2018-01-25T17:35:12.581Z,6.10
2018-01-25T17:36:12.571Z,5.60
2018-01-25T17:37:12.574Z,5.80
2018-01-25T17:38:12.559Z,5.60
2018-01-25T17:39:12.562Z,5.80
2018-01-25T17:40:12.556Z,6.10
2018-01-25T17:41:12.557Z,5.90
2018-01-25T17:42:12.542Z,6.20
2018-01-25T17:43:12.597Z,6.10
2018-01-25T17:44:12.540Z,6.10
2018-01-25T17:45:12.533Z,6.20
2018-01-25T17:46:12.536Z,6.30
2018-01-25T17:47:12.530Z,6.40
2018-01-25T17:48:12.517Z,5.90
2018-01-25T17:49:12.517Z,6.50
2018-01-25T17:50:12.518Z,6.30
2018-01-25T17:51:12.516Z,6.50
2018-01-25T17:52:12.510Z,6.20
2018-01-25T17:53:12.503Z,6.70
2018-01-25T17:54:12.499Z,6.20
2018-01-25T17:55:12.492Z,6.30
2018-01-25T17:56:12.492Z,6.70
2018-01-25T17:57:12.491Z,6.00
2018-01-25T17:58:12.482Z,6.60
2018-01-25T17:59:12.476Z,6.60
2018-01-25T18:00:12.470Z,6.90
2018-01-25T18:01:12.465Z,6.30
2018-01-25T18:02:12.473Z,6.70
2018-01-25T18:03:12.466Z,7.30
2018-01-25T18:04:12.459Z,7.30
2018-01-25T18:05:12.455Z,6.80
2018-01-25T18:06:12.455Z,6.20
2018-01-25T18:07:12.452Z,6.80
2018-01-25T18:08:12.444Z,6.10
2018-01-25T18:09:12.438Z,6.60
2018-01-25T18:10:12.431Z,6.50
2018-01-25T18:11:12.427Z,6.60
2018-01-25T18:12:12.435Z,7.40
2018-01-25T18:13:12.424Z,6.10
2018-01-25T18:14:12.416Z,6.60
2018-01-25T18:15:12.466Z,6.70
2018-01-25T18:16:12.408Z,7.20
2018-01-25T18:17:12.404Z,6.90
2018-01-25T18:18:12.404Z,7.20
2018-01-25T18:19:12.400Z,7.00
2018-01-25T18:20:12.395Z,7.50
2018-01-25T18:21:12.387Z,6.60
2018-01-25T18:22:12.391Z,7.20
2018-01-25T18:23:12.385Z,7.60
2018-01-25T18:24:12.381Z,6.90
2018-01-25T18:25:12.374Z,7.40
2018-01-25T18:26:12.365Z,7.00
2018-01-25T18:27:12.366Z,7.00
2018-01-25T18:28:12.361Z,6.80
2018-01-25T18:29:12.354Z,7.20
2018-01-25T18:30:12.356Z,7.30
2018-01-25T18:31:12.350Z,7.40
2018-01-25T18:32:12.345Z,7.40
2018-01-25T18:33:12.338Z,6.70
2018-01-25T18:34:12.337Z,7.50
2018-01-25T18:35:12.412Z,6.90
2018-01-25T18:36:12.331Z,7.30
2018-01-25T18:37:12.329Z,7.40
2018-01-25T18:38:12.320Z,7.00
2018-01-25T18:39:12.314Z,6.60
2018-01-25T18:40:12.308Z,7.80
2018-01-25T18:41:12.302Z,6.90
2018-01-25T18:42:12.606Z,7.20
2018-01-25T18:43:12.298Z,7.40
2018-01-25T18:44:12.292Z,7.40
2018-01-25T18:45:12.289Z,8.10
2018-01-25T18:46:12.286Z,7.70
2018-01-25T18:47:12.284Z,7.10
2018-01-25T18:48:12.832Z,8.20
2018-01-25T18:49:12.280Z,8.20
2018-01-25T18:50:12.270Z,8.00
2018-01-25T18:51:12.265Z,7.90
2018-01-25T18:52:12.262Z,7.20
2018-01-25T18:53:12.257Z,7.40
2018-01-25T18:54:12.550Z,7.10
2018-01-25T18:55:12.245Z,7.10
2018-01-25T18:56:12.243Z,7.30
2018-01-25T18:57:12.246Z,7.70
2018-01-25T18:58:12.240Z,7.40
2018-01-25T18:59:12.238Z,7.10
2018-01-25T19:00:12.227Z,7.30
2018-01-25T19:01:12.223Z,7.80
2018-01-25T19:02:12.221Z,7.60
2018-01-25T19:03:12.218Z,7.50
2018-01-25T19:04:12.216Z,7.70
2018-01-25T19:05:12.557Z,7.60
2018-01-25T19:06:12.199Z,7.80
2018-01-25T19:07:12.267Z,7.20
2018-01-25T19:08:12.198Z,7.30
2018-01-25T19:09:12.191Z,6.90
2018-01-25T19:10:12.184Z,7.80
2018-01-25T19:11:12.480Z,7.40
2018-01-25T19:12:12.172Z,7.70
2018-01-25T19:13:12.168Z,7.70
2018-01-25T19:14:12.167Z,7.20
2018-01-25T19:15:12.162Z,7.40
2018-01-25T19:16:12.154Z,7.20
2018-01-25T19:17:12.449Z,7.40
2018-01-25T19:18:12.153Z,7.50
2018-01-25T19:19:12.145Z,7.50
2018-01-25T19:20:12.146Z,7.50
2018-01-25T19:21:12.136Z,6.70
2018-01-25T19:22:12.133Z,7.20
2018-01-25T19:23:12.426Z,7.40
2018-01-25T19:24:12.126Z,6.90
2018-01-25T19:25:12.118Z,7.00
2018-01-25T19:26:12.112Z,7.10
2018-01-25T19:27:12.104Z,7.40
2018-01-25T19:28:12.105Z,6.50
2018-01-25T19:29:12.097Z,7.10
2018-01-25T19:30:12.101Z,7.80
2018-01-25T19:31:12.092Z,7.60
2018-01-25T19:32:12.092Z,8.10
2018-01-25T19:33:12.084Z,7.80
2018-01-25T19:34:12.080Z,7.50
2018-01-25T19:35:12.070Z,7.20
2018-01-25T19:36:12.069Z,7.40
2018-01-25T19:37:12.065Z,7.20
2018-01-25T19:38:12.064Z,6.90
2018-01-25T19:39:12.051Z,7.10
2018-01-25T19:40:12.136Z,6.60
2018-01-25T19:41:12.042Z,7.20
2018-01-25T19:42:12.036Z,4.90
2018-01-25T19:43:12.031Z,5.30
2018-01-25T19:44:12.026Z,6.50
2018-01-25T19:45:12.019Z,6.30
2018-01-25T19:46:12.027Z,6.40
2018-01-25T19:47:12.015Z,6.30
2018-01-25T19:48:12.009Z,6.70
2018-01-25T19:49:12.001Z,5.80
2018-01-25T19:50:11.998Z,6.20
2018-01-25T19:51:11.995Z,5.50
2018-01-25T19:52:11.987Z,5.20
2018-01-25T19:53:11.981Z,4.60
2018-01-25T19:54:11.976Z,4.20
2018-01-25T19:55:11.972Z,4.80
2018-01-25T19:56:11.968Z,4.70
2018-01-25T19:57:11.968Z,4.40
2018-01-25T19:58:11.957Z,4.30
2018-01-25T19:59:11.949Z,4.40
2018-01-25T20:00:11.942Z,3.20
2018-01-25T20:01:11.941Z,4.30
2018-01-25T20:02:11.939Z,4.50
2018-01-25T20:03:11.931Z,4.60
2018-01-25T20:04:11.927Z,4.10
2018-01-25T20:05:11.934Z,4.20
2018-01-25T20:06:11.914Z,3.40
2018-01-25T20:07:11.912Z,3.60
2018-01-25T20:08:11.906Z,3.80
2018-01-25T20:09:11.898Z,4.10
2018-01-25T20:10:11.890Z,4.00
2018-01-25T20:11:11.883Z,4.00
2018-01-25T20:12:11.886Z,2.90
2018-01-25T20:13:11.879Z,3.70
2018-01-25T20:14:11.882Z,3.80
2018-01-25T20:15:11.860Z,3.70
2018-01-25T20:16:11.855Z,3.90
2018-01-25T20:17:11.852Z,3.70
2018-01-25T20:18:11.851Z,3.50
2018-01-25T20:19:11.844Z,4.10
2018-01-25T20:20:11.832Z,4.10
2018-01-25T20:21:11.825Z,4.20
2018-01-25T20:22:11.828Z,3.90
2018-01-25T20:23:11.818Z,4.40
2018-01-25T20:24:11.812Z,4.40
2018-01-25T20:25:11.808Z,4.20
2018-01-25T20:26:11.800Z,4.60
2018-01-25T20:27:11.793Z,4.50
2018-01-25T20:28:11.803Z,4.70
2018-01-25T20:29:11.787Z,4.30
2018-01-25T20:30:11.774Z,4.70
2018-01-25T20:31:11.768Z,5.20
2018-01-25T20:32:11.759Z,5.60
2018-01-25T20:33:11.753Z,5.70
2018-01-25T20:34:11.751Z,5.60
2018-01-25T20:35:11.746Z,6.00
2018-01-25T20:36:11.738Z,5.70
2018-01-25T20:37:11.735Z,6.00
2018-01-25T20:38:11.732Z,5.90
2018-01-25T20:39:11.725Z,5.90
2018-01-25T20:40:11.718Z,6.60
2018-01-25T20:41:11.713Z,6.80
2018-01-25T20:42:11.701Z,7.20
2018-01-25T20:43:11.699Z,7.10
2018-01-25T20:44:11.696Z,7.00
2018-01-25T20:45:11.692Z,7.40
2018-01-25T20:46:11.679Z,7.40
2018-01-25T20:47:11.677Z,7.70
2018-01-25T20:48:11.666Z,8.00
2018-01-25T20:49:11.762Z,8.50
2018-01-25T20:50:11.664Z,8.30
2018-01-25T20:51:11.655Z,8.20
2018-01-25T20:52:11.642Z,8.20
2018-01-25T20:53:11.642Z,8.50
2018-01-25T20:54:11.639Z,8.80
2018-01-25T20:55:11.628Z,8.20
2018-01-25T20:56:11.626Z,8.90
2018-01-25T20:57:11.619Z,8.80
2018-01-25T20:58:11.609Z,9.30
2018-01-25T20:59:11.605Z,9.30
2018-01-25T21:00:11.604Z,9.60
2018-01-25T21:01:11.594Z,9.00
2018-01-25T21:02:11.588Z,9.90
2018-01-25T21:03:11.580Z,9.80
2018-01-25T21:04:11.574Z,9.80
2018-01-25T21:05:11.566Z,9.50
2018-01-25T21:06:11.566Z,10.40
2018-01-25T21:07:11.559Z,9.60
2018-01-25T21:08:11.552Z,9.60
2018-01-25T21:09:11.541Z,10.20
2018-01-25T21:10:11.542Z,9.80
2018-01-25T21:11:11.536Z,10.00
2018-01-25T21:12:11.531Z,9.60
2018-01-25T21:13:11.526Z,10.10
2018-01-25T21:14:11.557Z,10.50
2018-01-25T21:15:11.509Z,10.40
2018-01-25T21:16:11.510Z,10.40
2018-01-25T21:17:11.498Z,10.30
2018-01-25T21:18:11.494Z,9.60
2018-01-25T21:19:11.484Z,9.70
2018-01-25T21:20:11.479Z,10.70
2018-01-25T21:21:11.470Z,10.10
2018-01-25T21:22:11.468Z,10.80
2018-01-25T21:23:11.467Z,10.50
2018-01-25T21:24:11.451Z,10.80
2018-01-25T21:25:11.466Z,10.60
2018-01-25T21:26:11.448Z,10.40
2018-01-25T21:27:11.438Z,10.50
2018-01-25T21:28:11.435Z,11.20
2018-01-25T21:29:11.429Z,11.20
2018-01-25T21:30:11.668Z,10.50
2018-01-25T21:31:11.413Z,11.20
2018-01-25T21:32:11.410Z,11.50
2018-01-25T21:33:11.402Z,11.70
2018-01-25T21:34:11.396Z,11.30
2018-01-25T21:35:11.393Z,12.10
2018-01-25T21:36:11.385Z,11.90
2018-01-25T21:37:11.378Z,11.60
2018-01-25T21:38:11.377Z,12.10
2018-01-25T21:39:11.371Z,12.40
2018-01-25T21:40:11.362Z,12.20
2018-01-25T21:41:11.359Z,11.90
2018-01-25T21:42:11.355Z,12.40
2018-01-25T21:43:11.352Z,12.70
2018-01-25T21:44:11.359Z,13.10
2018-01-25T21:45:11.335Z,12.80
2018-01-25T21:46:11.330Z,12.60
2018-01-25T21:47:11.320Z,12.00
2018-01-25T21:48:11.315Z,13.00
2018-01-25T21:49:11.316Z,12.90
2018-01-25T21:50:11.304Z,13.30
2018-01-25T21:51:11.294Z,13.40
2018-01-25T21:52:11.300Z,12.80
2018-01-25T21:53:11.286Z,13.60
2018-01-25T21:54:11.282Z,14.10
2018-01-25T21:55:11.278Z,14.50
2018-01-25T21:56:11.268Z,13.20
2018-01-25T21:57:11.263Z,13.90
2018-01-25T21:58:11.261Z,13.70
2018-01-25T21:59:11.256Z,13.90
2018-01-25T22:00:11.248Z,14.90
2018-01-25T22:01:11.246Z,14.70
2018-01-25T22:02:11.232Z,13.60
2018-01-25T22:03:11.230Z,13.50
2018-01-25T22:04:11.229Z,13.80
2018-01-25T22:05:11.223Z,14.30
2018-01-25T22:06:11.214Z,13.30
2018-01-25T22:07:11.204Z,13.60
2018-01-25T22:08:11.213Z,14.20
2018-01-25T22:09:11.191Z,13.80
2018-01-25T22:10:11.188Z,14.80
2018-01-25T22:11:11.184Z,14.00
2018-01-25T22:12:11.173Z,15.00
2018-01-25T22:13:11.170Z,14.20
2018-01-25T22:14:11.171Z,14.40
2018-01-25T22:15:11.161Z,14.00
2018-01-25T22:16:11.171Z,14.10
2018-01-25T22:17:11.154Z,14.60
2018-01-25T22:18:11.140Z,14.80
2018-01-25T22:19:11.135Z,14.60
2018-01-25T22:20:11.138Z,15.00
2018-01-25T22:21:11.132Z,14.70
2018-01-25T22:22:11.115Z,14.40
2018-01-25T22:23:11.111Z,15.40
2018-01-25T22:24:11.124Z,14.00
2018-01-25T22:25:11.100Z,15.30
2018-01-25T22:26:11.099Z,14.10
2018-01-25T22:27:11.095Z,15.60
2018-01-25T22:28:11.088Z,15.20
2018-01-25T22:29:11.082Z,14.80
2018-01-25T22:30:11.084Z,14.60
2018-01-25T22:31:11.086Z,15.50
2018-01-25T22:32:11.081Z,15.40
2018-01-25T22:33:11.061Z,15.20
2018-01-25T22:34:11.049Z,15.40
2018-01-25T22:35:11.041Z,16.00
2018-01-25T22:36:11.043Z,15.20
2018-01-25T22:37:11.038Z,15.00
2018-01-25T22:38:11.033Z,16.40
2018-01-25T22:39:11.033Z,16.00
2018-01-25T22:40:11.036Z,15.30
2018-01-25T22:41:11.011Z,15.80
2018-01-25T22:42:11.022Z,16.00
2018-01-25T22:43:11.004Z,15.40
2018-01-25T22:44:10.996Z,16.00
2018-01-25T22:45:10.994Z,15.90
2018-01-25T22:46:10.981Z,15.40
2018-01-25T22:47:10.975Z,15.70
2018-01-25T22:48:10.995Z,16.10
2018-01-25T22:49:10.969Z,16.10
2018-01-25T22:50:10.963Z,16.30
2018-01-25T22:51:11.062Z,15.50
2018-01-25T22:52:10.952Z,16.40
2018-01-25T22:53:10.939Z,16.30
2018-01-25T22:54:10.941Z,16.20
2018-01-25T22:55:10.937Z,17.00
2018-01-25T22:56:10.943Z,16.70
2018-01-25T22:57:10.935Z,17.40
2018-01-25T22:58:10.920Z,16.90
2018-01-25T22:59:10.910Z,16.90
2018-01-25T23:00:10.909Z,16.90
2018-01-25T23:01:10.902Z,16.60
2018-01-25T23:02:10.895Z,17.50
2018-01-25T23:03:10.887Z,17.90
2018-01-25T23:04:10.892Z,17.10
2018-01-25T23:05:10.873Z,18.80
2018-01-25T23:06:10.883Z,17.60
2018-01-25T23:07:10.866Z,17.70
2018-01-25T23:08:10.960Z,18.20
2018-01-25T23:09:10.854Z,18.50
2018-01-25T23:10:10.851Z,18.00
2018-01-25T23:11:10.845Z,18.50
2018-01-25T23:12:10.856Z,18.30
2018-01-25T23:13:10.836Z,18.40
2018-01-25T23:14:10.822Z,18.90
2018-01-25T23:15:10.817Z,17.80
2018-01-25T23:16:10.817Z,19.20
2018-01-25T23:17:10.816Z,19.30
2018-01-25T23:18:10.801Z,19.20
2018-01-25T23:19:10.796Z,19.90
2018-01-25T23:20:10.890Z,19.60
2018-01-25T23:21:10.786Z,19.70
2018-01-25T23:22:10.785Z,19.00
2018-01-25T23:23:10.781Z,20.40
2018-01-25T23:24:10.768Z,20.40
2018-01-25T23:25:10.769Z,19.20
2018-01-25T23:26:10.767Z,20.50
2018-01-25T23:27:10.756Z,19.60
2018-01-25T23:28:10.768Z,20.10
2018-01-25T23:29:10.743Z,21.30
2018-01-25T23:30:10.737Z,21.00
2018-01-25T23:31:10.730Z,20.60
2018-01-25T23:32:10.728Z,21.00
2018-01-25T23:33:10.720Z,21.30
2018-01-25T23:34:10.715Z,20.60
2018-01-25T23:35:10.709Z,21.00
2018-01-25T23:36:10.871Z,20.80
2018-01-25T23:37:10.693Z,21.90
2018-01-25T23:38:10.691Z,20.30
2018-01-25T23:39:10.692Z,21.60
2018-01-25T23:40:10.677Z,21.80
2018-01-25T23:41:10.673Z,21.10
2018-01-25T23:42:10.672Z,22.20
2018-01-25T23:43:10.666Z,21.20
2018-01-25T23:44:10.668Z,21.50
2018-01-25T23:45:10.656Z,23.00
2018-01-25T23:46:10.641Z,22.00
2018-01-25T23:47:10.636Z,22.00
2018-01-25T23:48:10.639Z,22.60
2018-01-25T23:49:10.629Z,21.60
2018-01-25T23:50:10.619Z,23.30
2018-01-25T23:51:10.616Z,23.10
2018-01-25T23:52:10.873Z,22.60
2018-01-25T23:53:10.606Z,23.10
2018-01-25T23:54:10.603Z,22.10
2018-01-25T23:55:10.593Z,22.50
2018-01-25T23:56:10.590Z,22.00
2018-01-25T23:57:10.581Z,22.00
2018-01-25T23:58:10.578Z,21.80
2018-01-25T23:59:10.575Z,24.10
